createdAt,value
2024-03-13T00:04:36.176Z,5.90
2024-03-13T00:10:08.319Z,5.90
2024-03-13T00:15:36.538Z,5.90
2024-03-13T00:21:05.434Z,5.90
2024-03-13T00:26:35.027Z,5.90
2024-03-13T00:32:03.572Z,5.90
2024-03-13T00:37:31.886Z,5.90
2024-03-13T00:43:00.258Z,6.00
2024-03-13T00:48:32.896Z,6.00
2024-03-13T00:54:05.689Z,6.00
2024-03-13T00:59:33.925Z,6.00
2024-03-13T01:05:01.744Z,6.00
2024-03-13T01:10:29.682Z,6.00
2024-03-13T01:15:58.050Z,6.10
2024-03-13T01:21:26.253Z,6.10
2024-03-13T01:26:54.617Z,6.00
2024-03-13T01:32:24.579Z,6.00
2024-03-13T01:38:03.147Z,6.00
2024-03-13T01:43:50.054Z,6.00
2024-03-13T01:49:39.878Z,6.00
2024-03-13T01:55:25.732Z,6.00
2024-03-13T02:01:13.613Z,5.90
2024-03-13T02:06:42.657Z,5.90
2024-03-13T02:12:14.124Z,5.90
2024-03-13T02:17:42.789Z,5.90
2024-03-13T02:23:12.189Z,5.80
2024-03-13T02:28:42.928Z,5.80
2024-03-13T02:34:11.823Z,5.80
2024-03-13T02:39:40.773Z,5.70
2024-03-13T02:45:09.167Z,5.70
2024-03-13T02:50:37.427Z,5.70
2024-03-13T02:56:08.179Z,5.60
2024-03-13T03:01:36.476Z,5.60
2024-03-13T03:07:05.446Z,5.50
2024-03-13T03:12:33.693Z,5.50
2024-03-13T03:18:03.052Z,5.50
2024-03-13T03:23:31.279Z,5.50
2024-03-13T03:28:59.488Z,5.50
2024-03-13T03:34:27.885Z,5.50
2024-03-13T03:39:56.824Z,5.50
2024-03-13T03:45:25.174Z,5.50
2024-03-13T03:50:53.370Z,5.50
2024-03-13T03:56:21.724Z,5.50
2024-03-13T04:01:50.924Z,5.40
2024-03-13T04:07:19.250Z,5.40
2024-03-13T04:12:47.848Z,5.40
2024-03-13T04:18:16.153Z,5.40
2024-03-13T04:23:47.230Z,5.40
2024-03-13T04:29:15.476Z,5.40
2024-03-13T04:34:43.729Z,5.30
2024-03-13T04:40:12.290Z,5.30
2024-03-13T04:45:40.587Z,5.30
2024-03-13T04:51:09.099Z,5.30
2024-03-13T04:56:38.451Z,5.30
2024-03-13T05:02:06.692Z,5.30
2024-03-13T05:07:36.316Z,5.30
2024-03-13T05:13:04.868Z,5.30
2024-03-13T05:18:33.392Z,5.30
2024-03-13T05:24:01.606Z,5.30
2024-03-13T05:29:30.333Z,5.20
2024-03-13T05:34:58.471Z,5.20
2024-03-13T05:40:26.627Z,5.20
2024-03-13T05:45:55.087Z,5.10
2024-03-13T05:51:24.536Z,5.00
2024-03-13T05:56:52.734Z,5.10
2024-03-13T06:02:21.461Z,5.00
2024-03-13T06:07:56.711Z,5.00
2024-03-13T06:13:25.086Z,5.00
2024-03-13T06:18:53.372Z,5.10
2024-03-13T06:24:31.691Z,5.10
2024-03-13T06:30:02.018Z,5.10
2024-03-13T06:35:32.271Z,5.10
2024-03-13T06:41:01.478Z,5.20
2024-03-13T06:46:30.343Z,5.20
2024-03-13T06:51:58.548Z,5.30
2024-03-13T06:57:26.658Z,5.40
2024-03-13T07:02:56.565Z,5.50
2024-03-13T07:08:24.892Z,5.60
2024-03-13T07:13:53.574Z,5.60
2024-03-13T07:19:23.342Z,5.60
2024-03-13T07:24:51.564Z,5.50
2024-03-13T07:30:22.294Z,5.50
2024-03-13T07:35:50.466Z,5.50
2024-03-13T07:41:18.704Z,5.60
2024-03-13T07:46:46.986Z,5.60
2024-03-13T07:52:16.463Z,5.80
2024-03-13T07:57:44.940Z,5.90
2024-03-13T08:03:14.176Z,6.00
2024-03-13T09:06:31.202Z,7.30
2024-03-13T09:11:59.375Z,7.40
2024-03-13T09:17:27.708Z,7.40
2024-03-13T09:22:57.024Z,7.30
2024-03-13T09:28:25.506Z,7.30
2024-03-13T09:33:53.907Z,7.30
2024-03-13T09:39:23.143Z,7.40
2024-03-13T09:44:51.811Z,7.60
2024-03-13T09:50:22.182Z,7.60
2024-03-13T09:55:50.830Z,7.70
2024-03-13T10:01:28.661Z,7.80
2024-03-13T10:07:00.884Z,7.90
2024-03-13T10:12:29.113Z,8.00
2024-03-13T10:18:18.221Z,7.90
2024-03-13T10:23:49.020Z,7.90
2024-03-13T10:29:18.706Z,8.10
2024-03-13T10:34:48.324Z,8.30
2024-03-13T10:40:16.586Z,8.70
2024-03-13T10:45:50.116Z,8.90
2024-03-13T10:51:18.598Z,9.00
2024-03-13T10:56:54.630Z,9.10
2024-03-13T11:02:22.962Z,9.10
2024-03-13T11:07:53.925Z,9.10
2024-03-13T11:13:26.123Z,9.10
2024-03-13T11:18:56.880Z,9.20
2024-03-13T11:24:27.083Z,9.20
2024-03-13T11:29:56.502Z,9.10
2024-03-13T11:35:24.941Z,9.00
2024-03-13T11:40:55.576Z,9.00
2024-03-13T11:46:30.149Z,9.00
2024-03-13T11:52:04.676Z,9.20
2024-03-13T11:57:33.057Z,9.20
2024-03-13T12:03:03.410Z,9.30
2024-03-13T12:08:31.824Z,9.30
2024-03-13T12:14:00.962Z,9.30
2024-03-13T12:19:29.189Z,9.40
2024-03-13T12:24:57.576Z,9.60
2024-03-13T12:30:27.043Z,9.80
2024-03-13T12:36:04.048Z,9.70
2024-03-13T12:41:32.283Z,9.70
2024-03-13T12:47:01.041Z,9.80
2024-03-13T12:52:30.230Z,9.80
2024-03-13T12:58:08.125Z,9.80
2024-03-13T13:03:36.657Z,9.80
2024-03-13T13:09:12.351Z,10.00
2024-03-13T13:14:41.602Z,10.10
2024-03-13T13:20:12.058Z,10.20
2024-03-13T13:25:40.370Z,10.20
2024-03-13T13:31:10.167Z,10.40
2024-03-13T13:36:38.476Z,10.50
2024-03-13T13:42:06.508Z,10.80
2024-03-13T13:47:34.908Z,10.90
2024-03-13T13:53:03.149Z,10.80
2024-03-13T13:58:31.750Z,11.00
2024-03-13T14:03:59.942Z,11.00
2024-03-13T14:09:30.946Z,11.00
2024-03-13T14:14:59.919Z,10.90
2024-03-13T14:20:28.180Z,11.00
2024-03-13T14:25:56.848Z,11.00
2024-03-13T14:31:24.959Z,12.00
2024-03-13T14:36:54.254Z,12.10
2024-03-13T14:42:28.699Z,11.90
2024-03-13T14:48:01.421Z,11.60
2024-03-13T14:53:29.615Z,11.30
2024-03-13T14:58:57.856Z,11.10
2024-03-13T15:04:25.983Z,10.90
2024-03-13T15:09:54.160Z,10.70
2024-03-13T15:15:24.305Z,10.40
2024-03-13T15:20:53.870Z,10.20
2024-03-13T15:26:22.185Z,10.20
2024-03-13T15:31:53.250Z,10.10
2024-03-13T15:37:21.784Z,10.10
2024-03-13T15:42:50.708Z,10.10
2024-03-13T15:48:19.464Z,10.20
2024-03-13T15:53:47.791Z,10.20
2024-03-13T15:59:16.062Z,10.10
2024-03-13T16:04:44.163Z,10.10
2024-03-13T16:10:12.386Z,10.10
2024-03-13T16:15:40.485Z,10.00
2024-03-13T16:21:08.715Z,9.90
2024-03-13T16:26:38.408Z,9.90
2024-03-13T16:32:07.857Z,9.80
2024-03-13T16:37:35.975Z,9.80
2024-03-13T16:43:04.566Z,9.80
2024-03-13T16:48:32.990Z,9.70
2024-03-13T16:54:01.231Z,9.70
2024-03-13T16:59:29.561Z,9.70
2024-03-13T17:04:57.864Z,9.60
2024-03-13T17:10:26.240Z,9.60
2024-03-13T17:15:54.846Z,9.60
2024-03-13T17:21:23.219Z,9.50
2024-03-13T17:26:56.882Z,9.50
2024-03-13T17:32:25.375Z,9.50
2024-03-13T17:37:54.932Z,9.50
2024-03-13T17:43:23.342Z,9.40
2024-03-13T17:48:52.650Z,9.40
2024-03-13T17:54:22.293Z,9.30
2024-03-13T17:59:52.353Z,9.30
2024-03-13T18:05:25.797Z,9.20
2024-03-13T18:10:54.494Z,9.10
2024-03-13T18:16:22.701Z,9.00
2024-03-13T18:21:50.831Z,9.00
2024-03-13T18:27:19.190Z,8.90
2024-03-13T18:32:49.764Z,8.90
2024-03-13T18:38:22.235Z,8.90
2024-03-13T18:43:50.522Z,8.80
2024-03-13T18:49:18.931Z,8.80
2024-03-13T18:54:47.277Z,8.70
2024-03-13T19:00:17.998Z,8.70
2024-03-13T19:05:46.597Z,8.70
2024-03-13T19:11:21.159Z,8.60
2024-03-13T19:16:49.472Z,8.60
2024-03-13T19:22:17.672Z,8.60
2024-03-13T19:27:45.893Z,8.60
2024-03-13T19:33:15.593Z,8.60
2024-03-13T19:38:44.364Z,8.60
2024-03-13T19:44:13.949Z,8.60
2024-03-13T19:49:42.997Z,8.60
2024-03-13T19:55:14.084Z,8.60
2024-03-13T20:00:44.971Z,8.70
2024-03-13T20:06:13.360Z,8.70
2024-03-13T20:11:43.419Z,8.70
2024-03-13T20:17:12.538Z,8.60
2024-03-13T20:22:41.759Z,8.70
2024-03-13T20:28:12.714Z,8.70
2024-03-13T20:33:41.083Z,8.70
2024-03-13T20:39:09.504Z,8.70
2024-03-13T20:44:38.272Z,8.70
2024-03-13T20:50:08.548Z,8.70
2024-03-13T20:55:37.011Z,8.60
2024-03-13T21:01:08.738Z,8.60
2024-03-13T21:06:39.100Z,8.60
2024-03-13T21:12:07.768Z,8.60
2024-03-13T21:17:36.876Z,8.60
2024-03-13T21:23:05.155Z,8.50
2024-03-13T21:28:33.325Z,8.50
2024-03-13T21:34:03.380Z,8.40
2024-03-13T21:39:32.592Z,8.40
2024-03-13T21:45:01.136Z,8.30
2024-03-13T21:50:29.760Z,8.30
2024-03-13T21:55:58.076Z,8.30
2024-03-13T22:01:26.701Z,8.20
2024-03-13T22:06:55.197Z,8.20
2024-03-13T22:12:27.905Z,8.20
2024-03-13T22:17:56.327Z,8.20
2024-03-13T22:23:24.840Z,8.20
2024-03-13T22:28:53.217Z,8.20
2024-03-13T22:34:21.450Z,8.20
2024-03-13T22:39:49.673Z,8.20
2024-03-13T22:45:18.619Z,8.10
2024-03-13T22:50:46.828Z,8.20
2024-03-13T22:56:15.066Z,8.20
2024-03-13T23:01:44.785Z,8.10
2024-03-13T23:07:14.950Z,8.20
2024-03-13T23:12:43.510Z,8.20
2024-03-13T23:18:12.102Z,8.20
2024-03-13T23:23:40.449Z,8.20
2024-03-13T23:29:09.552Z,8.30
2024-03-13T23:34:37.992Z,8.30
2024-03-13T23:40:07.739Z,8.20
2024-03-13T23:45:36.208Z,8.20
2024-03-13T23:51:08.162Z,8.20
2024-03-13T23:56:36.399Z,8.20
